sensor_id;sensor_type;location;lat;lon;timestamp;P1;durP1;ratioP1;P2;durP2;ratioP2
12814;SDS011;6472;52.328;13.070;2023-05-27T00:01:39;2.87;;;2.00;;
12814;SDS011;6472;52.328;13.070;2023-05-27T00:04:07;4.73;;;2.07;;
12814;SDS011;6472;52.328;13.070;2023-05-27T00:06:35;4.40;;;2.10;;
12814;SDS011;6472;52.328;13.070;2023-05-27T00:09:03;4.67;;;2.00;;
12814;SDS011;6472;52.328;13.070;2023-05-27T00:11:31;2.97;;;1.80;;
12814;SDS011;6472;52.328;13.070;2023-05-27T00:14:01;8.47;;;2.37;;
12814;SDS011;6472;52.328;13.070;2023-05-27T00:16:29;4.20;;;2.10;;
12814;SDS011;6472;52.328;13.070;2023-05-27T00:18:57;3.40;;;1.77;;
12814;SDS011;6472;52.328;13.070;2023-05-27T00:21:25;3.17;;;2.17;;
12814;SDS011;6472;52.328;13.070;2023-05-27T00:23:53;8.60;;;2.33;;
12814;SDS011;6472;52.328;13.070;2023-05-27T00:26:23;3.90;;;2.07;;
12814;SDS011;6472;52.328;13.070;2023-05-27T00:28:52;4.07;;;2.13;;
12814;SDS011;6472;52.328;13.070;2023-05-27T00:31:21;5.27;;;2.20;;
12814;SDS011;6472;52.328;13.070;2023-05-27T00:33:49;4.97;;;2.30;;
12814;SDS011;6472;52.328;13.070;2023-05-27T00:36:17;3.33;;;2.00;;
12814;SDS011;6472;52.328;13.070;2023-05-27T00:38:45;6.17;;;2.00;;
12814;SDS011;6472;52.328;13.070;2023-05-27T00:41:14;7.23;;;2.27;;
12814;SDS011;6472;52.328;13.070;2023-05-27T00:43:42;6.00;;;2.63;;
12814;SDS011;6472;52.328;13.070;2023-05-27T00:46:10;5.50;;;2.10;;
12814;SDS011;6472;52.328;13.070;2023-05-27T00:48:39;2.70;;;1.77;;
12814;SDS011;6472;52.328;13.070;2023-05-27T00:51:07;4.23;;;1.97;;
12814;SDS011;6472;52.328;13.070;2023-05-27T00:53:36;5.77;;;2.13;;
12814;SDS011;6472;52.328;13.070;2023-05-27T00:56:08;7.27;;;2.23;;
12814;SDS011;6472;52.328;13.070;2023-05-27T00:58:36;4.70;;;2.20;;
12814;SDS011;6472;52.328;13.070;2023-05-27T01:01:05;4.80;;;2.40;;
12814;SDS011;6472;52.328;13.070;2023-05-27T01:03:33;5.70;;;2.67;;
12814;SDS011;6472;52.328;13.070;2023-05-27T01:06:06;4.10;;;2.20;;
12814;SDS011;6472;52.328;13.070;2023-05-27T01:08:42;4.27;;;2.00;;
12814;SDS011;6472;52.328;13.070;2023-05-27T01:11:18;3.23;;;1.90;;
12814;SDS011;6472;52.328;13.070;2023-05-27T01:13:52;3.70;;;2.53;;
12814;SDS011;6472;52.328;13.070;2023-05-27T01:16:24;6.80;;;2.57;;
12814;SDS011;6472;52.328;13.070;2023-05-27T01:18:55;5.33;;;2.23;;
12814;SDS011;6472;52.328;13.070;2023-05-27T01:21:27;6.03;;;2.57;;
12814;SDS011;6472;52.328;13.070;2023-05-27T01:24:03;4.37;;;1.80;;
12814;SDS011;6472;52.328;13.070;2023-05-27T01:26:32;5.13;;;2.43;;
12814;SDS011;6472;52.328;13.070;2023-05-27T01:29:00;7.40;;;2.57;;
12814;SDS011;6472;52.328;13.070;2023-05-27T01:31:33;3.40;;;2.07;;
12814;SDS011;6472;52.328;13.070;2023-05-27T01:34:07;5.23;;;2.60;;
12814;SDS011;6472;52.328;13.070;2023-05-27T01:36:38;3.07;;;2.40;;
12814;SDS011;6472;52.328;13.070;2023-05-27T01:39:17;4.80;;;2.10;;
12814;SDS011;6472;52.328;13.070;2023-05-27T01:41:45;7.57;;;2.40;;
12814;SDS011;6472;52.328;13.070;2023-05-27T01:44:14;3.43;;;2.40;;
12814;SDS011;6472;52.328;13.070;2023-05-27T01:46:44;7.97;;;2.73;;
12814;SDS011;6472;52.328;13.070;2023-05-27T01:49:12;2.87;;;2.57;;
12814;SDS011;6472;52.328;13.070;2023-05-27T01:51:40;5.47;;;2.60;;
12814;SDS011;6472;52.328;13.070;2023-05-27T01:54:08;3.43;;;2.47;;
12814;SDS011;6472;52.328;13.070;2023-05-27T01:56:38;5.83;;;2.27;;
12814;SDS011;6472;52.328;13.070;2023-05-27T01:59:06;3.23;;;1.97;;
12814;SDS011;6472;52.328;13.070;2023-05-27T02:01:34;3.83;;;2.00;;
12814;SDS011;6472;52.328;13.070;2023-05-27T02:04:02;2.80;;;2.40;;
12814;SDS011;6472;52.328;13.070;2023-05-27T02:06:30;3.57;;;2.73;;
12814;SDS011;6472;52.328;13.070;2023-05-27T02:08:59;7.00;;;2.47;;
12814;SDS011;6472;52.328;13.070;2023-05-27T02:11:27;5.30;;;2.20;;
12814;SDS011;6472;52.328;13.070;2023-05-27T02:13:56;9.13;;;2.40;;
12814;SDS011;6472;52.328;13.070;2023-05-27T02:16:25;3.67;;;2.23;;
12814;SDS011;6472;52.328;13.070;2023-05-27T02:18:54;2.50;;;2.30;;
12814;SDS011;6472;52.328;13.070;2023-05-27T02:21:22;5.43;;;2.83;;
12814;SDS011;6472;52.328;13.070;2023-05-27T02:23:50;2.10;;;1.83;;
12814;SDS011;6472;52.328;13.070;2023-05-27T02:26:19;11.27;;;2.47;;
12814;SDS011;6472;52.328;13.070;2023-05-27T02:28:48;5.57;;;2.33;;
12814;SDS011;6472;52.328;13.070;2023-05-27T02:31:17;3.87;;;2.10;;
12814;SDS011;6472;52.328;13.070;2023-05-27T02:33:45;3.77;;;1.80;;
12814;SDS011;6472;52.328;13.070;2023-05-27T02:36:13;3.37;;;1.90;;
12814;SDS011;6472;52.328;13.070;2023-05-27T02:38:41;4.20;;;2.17;;
12814;SDS011;6472;52.328;13.070;2023-05-27T02:41:10;3.77;;;2.17;;
12814;SDS011;6472;52.328;13.070;2023-05-27T02:43:38;4.97;;;2.30;;
12814;SDS011;6472;52.328;13.070;2023-05-27T02:46:06;1.90;;;1.80;;
12814;SDS011;6472;52.328;13.070;2023-05-27T02:48:35;4.87;;;2.70;;
12814;SDS011;6472;52.328;13.070;2023-05-27T02:51:03;5.13;;;3.10;;
12814;SDS011;6472;52.328;13.070;2023-05-27T02:53:31;4.77;;;2.53;;
12814;SDS011;6472;52.328;13.070;2023-05-27T02:55:59;5.00;;;2.23;;
12814;SDS011;6472;52.328;13.070;2023-05-27T02:58:27;2.23;;;2.00;;
12814;SDS011;6472;52.328;13.070;2023-05-27T03:00:55;3.30;;;2.20;;
12814;SDS011;6472;52.328;13.070;2023-05-27T03:03:23;7.23;;;2.60;;
12814;SDS011;6472;52.328;13.070;2023-05-27T03:05:53;3.20;;;2.57;;
12814;SDS011;6472;52.328;13.070;2023-05-27T03:08:21;5.50;;;2.53;;
12814;SDS011;6472;52.328;13.070;2023-05-27T03:10:49;4.03;;;2.47;;
12814;SDS011;6472;52.328;13.070;2023-05-27T03:13:17;4.97;;;2.57;;
12814;SDS011;6472;52.328;13.070;2023-05-27T03:15:45;3.77;;;2.33;;
12814;SDS011;6472;52.328;13.070;2023-05-27T03:18:13;4.40;;;2.97;;
12814;SDS011;6472;52.328;13.070;2023-05-27T03:20:41;4.70;;;2.30;;
12814;SDS011;6472;52.328;13.070;2023-05-27T03:23:11;2.67;;;1.97;;
12814;SDS011;6472;52.328;13.070;2023-05-27T03:25:39;4.67;;;2.57;;
12814;SDS011;6472;52.328;13.070;2023-05-27T03:28:07;4.40;;;1.97;;
12814;SDS011;6472;52.328;13.070;2023-05-27T03:30:35;4.97;;;2.53;;
12814;SDS011;6472;52.328;13.070;2023-05-27T03:33:04;4.00;;;2.30;;
12814;SDS011;6472;52.328;13.070;2023-05-27T03:35:32;4.47;;;2.50;;
12814;SDS011;6472;52.328;13.070;2023-05-27T03:38:00;2.97;;;2.57;;
12814;SDS011;6472;52.328;13.070;2023-05-27T03:40:29;5.93;;;2.37;;
12814;SDS011;6472;52.328;13.070;2023-05-27T03:42:57;6.23;;;2.50;;
12814;SDS011;6472;52.328;13.070;2023-05-27T03:45:25;7.40;;;3.20;;
12814;SDS011;6472;52.328;13.070;2023-05-27T03:47:53;6.37;;;2.70;;
12814;SDS011;6472;52.328;13.070;2023-05-27T03:50:21;7.80;;;2.50;;
12814;SDS011;6472;52.328;13.070;2023-05-27T03:52:49;5.10;;;2.40;;
12814;SDS011;6472;52.328;13.070;2023-05-27T03:55:17;4.80;;;2.77;;
12814;SDS011;6472;52.328;13.070;2023-05-27T03:57:48;5.40;;;2.93;;
12814;SDS011;6472;52.328;13.070;2023-05-27T04:00:17;5.20;;;2.77;;
12814;SDS011;6472;52.328;13.070;2023-05-27T04:02:45;5.93;;;2.57;;
12814;SDS011;6472;52.328;13.070;2023-05-27T04:05:13;9.43;;;3.20;;
12814;SDS011;6472;52.328;13.070;2023-05-27T04:07:43;6.60;;;2.47;;
12814;SDS011;6472;52.328;13.070;2023-05-27T04:10:11;2.37;;;2.10;;
12814;SDS011;6472;52.328;13.070;2023-05-27T04:12:39;3.63;;;2.57;;
12814;SDS011;6472;52.328;13.070;2023-05-27T04:15:09;6.10;;;2.67;;
12814;SDS011;6472;52.328;13.070;2023-05-27T04:17:37;6.93;;;2.67;;
12814;SDS011;6472;52.328;13.070;2023-05-27T04:20:05;5.87;;;3.03;;
12814;SDS011;6472;52.328;13.070;2023-05-27T04:22:40;7.70;;;2.83;;
12814;SDS011;6472;52.328;13.070;2023-05-27T04:25:09;3.63;;;1.97;;
12814;SDS011;6472;52.328;13.070;2023-05-27T04:27:37;4.07;;;3.00;;
12814;SDS011;6472;52.328;13.070;2023-05-27T04:30:06;6.80;;;2.80;;
12814;SDS011;6472;52.328;13.070;2023-05-27T04:32:37;8.40;;;2.87;;
12814;SDS011;6472;52.328;13.070;2023-05-27T04:35:06;6.97;;;2.83;;
12814;SDS011;6472;52.328;13.070;2023-05-27T04:37:35;7.33;;;3.10;;
12814;SDS011;6472;52.328;13.070;2023-05-27T04:40:03;7.70;;;2.17;;
12814;SDS011;6472;52.328;13.070;2023-05-27T04:42:34;6.00;;;3.00;;
12814;SDS011;6472;52.328;13.070;2023-05-27T04:45:04;7.23;;;2.20;;
12814;SDS011;6472;52.328;13.070;2023-05-27T04:47:33;5.27;;;2.77;;
12814;SDS011;6472;52.328;13.070;2023-05-27T04:50:07;4.90;;;3.30;;
12814;SDS011;6472;52.328;13.070;2023-05-27T04:52:36;8.30;;;2.90;;
12814;SDS011;6472;52.328;13.070;2023-05-27T04:55:08;4.03;;;2.33;;
12814;SDS011;6472;52.328;13.070;2023-05-27T04:57:37;4.07;;;2.90;;
12814;SDS011;6472;52.328;13.070;2023-05-27T05:00:08;8.80;;;2.67;;
12814;SDS011;6472;52.328;13.070;2023-05-27T05:02:49;5.57;;;2.63;;
12814;SDS011;6472;52.328;13.070;2023-05-27T05:05:29;5.00;;;2.30;;
12814;SDS011;6472;52.328;13.070;2023-05-27T05:07:57;3.27;;;2.43;;
12814;SDS011;6472;52.328;13.070;2023-05-27T05:10:25;4.10;;;2.73;;
12814;SDS011;6472;52.328;13.070;2023-05-27T05:12:53;5.60;;;2.37;;
12814;SDS011;6472;52.328;13.070;2023-05-27T05:15:21;7.77;;;3.70;;
12814;SDS011;6472;52.328;13.070;2023-05-27T05:17:49;11.10;;;5.63;;
12814;SDS011;6472;52.328;13.070;2023-05-27T05:20:18;9.40;;;2.97;;
12814;SDS011;6472;52.328;13.070;2023-05-27T05:22:47;6.47;;;3.53;;
12814;SDS011;6472;52.328;13.070;2023-05-27T05:25:15;7.33;;;3.17;;
12814;SDS011;6472;52.328;13.070;2023-05-27T05:27:43;8.07;;;3.73;;
12814;SDS011;6472;52.328;13.070;2023-05-27T05:30:11;9.67;;;2.67;;
12814;SDS011;6472;52.328;13.070;2023-05-27T05:32:40;5.87;;;2.57;;
12814;SDS011;6472;52.328;13.070;2023-05-27T05:35:08;8.20;;;2.97;;
12814;SDS011;6472;52.328;13.070;2023-05-27T05:37:36;9.33;;;2.80;;
12814;SDS011;6472;52.328;13.070;2023-05-27T05:40:06;5.33;;;2.77;;
12814;SDS011;6472;52.328;13.070;2023-05-27T05:42:34;3.53;;;2.47;;
12814;SDS011;6472;52.328;13.070;2023-05-27T05:45:03;6.00;;;2.83;;
12814;SDS011;6472;52.328;13.070;2023-05-27T05:47:32;3.63;;;2.33;;
12814;SDS011;6472;52.328;13.070;2023-05-27T05:50:00;3.53;;;2.30;;
12814;SDS011;6472;52.328;13.070;2023-05-27T05:52:28;4.53;;;2.70;;
12814;SDS011;6472;52.328;13.070;2023-05-27T05:54:56;7.43;;;2.77;;
12814;SDS011;6472;52.328;13.070;2023-05-27T05:57:25;3.33;;;1.90;;
12814;SDS011;6472;52.328;13.070;2023-05-27T06:00:00;3.33;;;2.17;;
12814;SDS011;6472;52.328;13.070;2023-05-27T06:02:29;2.77;;;2.00;;
12814;SDS011;6472;52.328;13.070;2023-05-27T06:04:57;8.50;;;2.60;;
12814;SDS011;6472;52.328;13.070;2023-05-27T06:07:25;9.60;;;2.00;;
12814;SDS011;6472;52.328;13.070;2023-05-27T06:09:53;6.87;;;2.53;;
12814;SDS011;6472;52.328;13.070;2023-05-27T06:12:21;8.10;;;2.10;;
12814;SDS011;6472;52.328;13.070;2023-05-27T06:14:52;5.47;;;2.10;;
12814;SDS011;6472;52.328;13.070;2023-05-27T06:17:20;8.33;;;2.80;;
12814;SDS011;6472;52.328;13.070;2023-05-27T06:19:48;5.73;;;2.17;;
12814;SDS011;6472;52.328;13.070;2023-05-27T06:22:16;5.57;;;2.47;;
12814;SDS011;6472;52.328;13.070;2023-05-27T06:24:44;4.60;;;1.73;;
12814;SDS011;6472;52.328;13.070;2023-05-27T06:27:12;5.63;;;2.47;;
12814;SDS011;6472;52.328;13.070;2023-05-27T06:29:40;3.93;;;2.00;;
12814;SDS011;6472;52.328;13.070;2023-05-27T06:32:09;5.13;;;2.40;;
12814;SDS011;6472;52.328;13.070;2023-05-27T06:34:37;5.85;;;2.25;;
12814;SDS011;6472;52.328;13.070;2023-05-27T06:37:05;3.40;;;2.10;;
12814;SDS011;6472;52.328;13.070;2023-05-27T06:39:33;3.55;;;1.73;;
12814;SDS011;6472;52.328;13.070;2023-05-27T06:42:01;6.20;;;2.13;;
12814;SDS011;6472;52.328;13.070;2023-05-27T06:44:29;3.57;;;1.90;;
12814;SDS011;6472;52.328;13.070;2023-05-27T06:46:58;4.47;;;2.10;;
12814;SDS011;6472;52.328;13.070;2023-05-27T06:49:29;4.40;;;1.83;;
12814;SDS011;6472;52.328;13.070;2023-05-27T06:51:57;4.30;;;1.80;;
12814;SDS011;6472;52.328;13.070;2023-05-27T06:54:26;6.55;;;2.85;;
12814;SDS011;6472;52.328;13.070;2023-05-27T06:56:53;4.30;;;1.60;;
12814;SDS011;6472;52.328;13.070;2023-05-27T06:59:21;1.50;;;1.23;;
12814;SDS011;6472;52.328;13.070;2023-05-27T07:01:50;2.90;;;1.38;;
12814;SDS011;6472;52.328;13.070;2023-05-27T07:04:18;3.45;;;1.05;;
12814;SDS011;6472;52.328;13.070;2023-05-27T07:06:48;2.67;;;1.00;;
12814;SDS011;6472;52.328;13.070;2023-05-27T07:09:16;3.00;;;1.25;;
12814;SDS011;6472;52.328;13.070;2023-05-27T07:11:44;2.60;;;1.33;;
12814;SDS011;6472;52.328;13.070;2023-05-27T07:14:12;0.90;;;0.90;;
12814;SDS011;6472;52.328;13.070;2023-05-27T07:16:40;2.67;;;0.80;;
12814;SDS011;6472;52.328;13.070;2023-05-27T07:19:08;1.15;;;0.95;;
12814;SDS011;6472;52.328;13.070;2023-05-27T07:21:36;1.02;;;0.77;;
12814;SDS011;6472;52.328;13.070;2023-05-27T07:24:05;1.15;;;1.05;;
12814;SDS011;6472;52.328;13.070;2023-05-27T07:26:33;2.80;;;0.93;;
12814;SDS011;6472;52.328;13.070;2023-05-27T07:29:01;1.00;;;0.70;;
12814;SDS011;6472;52.328;13.070;2023-05-27T07:31:29;1.27;;;1.10;;
12814;SDS011;6472;52.328;13.070;2023-05-27T07:33:57;3.70;;;1.08;;
12814;SDS011;6472;52.328;13.070;2023-05-27T07:36:25;4.07;;;1.08;;
12814;SDS011;6472;52.328;13.070;2023-05-27T07:38:53;1.67;;;1.15;;
12814;SDS011;6472;52.328;13.070;2023-05-27T07:41:23;1.95;;;1.02;;
12814;SDS011;6472;52.328;13.070;2023-05-27T07:43:52;3.60;;;1.15;;
12814;SDS011;6472;52.328;13.070;2023-05-27T07:46:20;1.45;;;1.00;;
12814;SDS011;6472;52.328;13.070;2023-05-27T07:48:48;1.33;;;1.17;;
12814;SDS011;6472;52.328;13.070;2023-05-27T07:51:16;2.67;;;0.95;;
12814;SDS011;6472;52.328;13.070;2023-05-27T07:53:44;0.60;;;0.60;;
12814;SDS011;6472;52.328;13.070;2023-05-27T07:56:14;1.35;;;0.77;;
12814;SDS011;6472;52.328;13.070;2023-05-27T07:58:43;1.05;;;0.80;;
12814;SDS011;6472;52.328;13.070;2023-05-27T08:01:11;3.40;;;1.30;;
12814;SDS011;6472;52.328;13.070;2023-05-27T08:03:39;3.55;;;1.20;;
12814;SDS011;6472;52.328;13.070;2023-05-27T08:06:08;2.35;;;1.08;;
12814;SDS011;6472;52.328;13.070;2023-05-27T08:08:39;3.10;;;0.98;;
12814;SDS011;6472;52.328;13.070;2023-05-27T08:11:07;2.40;;;1.27;;
12814;SDS011;6472;52.328;13.070;2023-05-27T08:13:35;1.60;;;1.08;;
12814;SDS011;6472;52.328;13.070;2023-05-27T08:16:04;2.28;;;1.00;;
12814;SDS011;6472;52.328;13.070;2023-05-27T08:18:33;1.73;;;1.17;;
12814;SDS011;6472;52.328;13.070;2023-05-27T08:21:01;1.48;;;0.80;;
12814;SDS011;6472;52.328;13.070;2023-05-27T08:23:29;2.80;;;0.82;;
12814;SDS011;6472;52.328;13.070;2023-05-27T08:25:57;2.00;;;1.10;;
12814;SDS011;6472;52.328;13.070;2023-05-27T08:28:25;1.30;;;0.90;;
12814;SDS011;6472;52.328;13.070;2023-05-27T08:30:53;1.65;;;0.95;;
12814;SDS011;6472;52.328;13.070;2023-05-27T08:33:23;4.70;;;1.48;;
12814;SDS011;6472;52.328;13.070;2023-05-27T08:35:51;2.70;;;0.95;;
12814;SDS011;6472;52.328;13.070;2023-05-27T08:38:18;2.42;;;0.68;;
12814;SDS011;6472;52.328;13.070;2023-05-27T08:40:47;2.58;;;1.05;;
12814;SDS011;6472;52.328;13.070;2023-05-27T08:43:15;1.40;;;0.93;;
12814;SDS011;6472;52.328;13.070;2023-05-27T08:45:44;0.90;;;0.75;;
12814;SDS011;6472;52.328;13.070;2023-05-27T08:48:13;1.02;;;0.90;;
12814;SDS011;6472;52.328;13.070;2023-05-27T08:50:43;2.28;;;1.15;;
12814;SDS011;6472;52.328;13.070;2023-05-27T08:53:14;1.02;;;0.82;;
12814;SDS011;6472;52.328;13.070;2023-05-27T08:55:44;2.92;;;1.30;;
12814;SDS011;6472;52.328;13.070;2023-05-27T08:58:13;2.72;;;0.90;;
12814;SDS011;6472;52.328;13.070;2023-05-27T09:00:42;0.98;;;0.93;;
12814;SDS011;6472;52.328;13.070;2023-05-27T09:03:11;1.80;;;0.77;;
12814;SDS011;6472;52.328;13.070;2023-05-27T09:05:39;0.70;;;0.70;;
12814;SDS011;6472;52.328;13.070;2023-05-27T09:08:08;3.22;;;1.02;;
12814;SDS011;6472;52.328;13.070;2023-05-27T09:10:36;1.17;;;0.65;;
12814;SDS011;6472;52.328;13.070;2023-05-27T09:13:05;1.13;;;0.90;;
12814;SDS011;6472;52.328;13.070;2023-05-27T09:15:34;2.78;;;1.20;;
12814;SDS011;6472;52.328;13.070;2023-05-27T09:18:02;1.63;;;1.10;;
12814;SDS011;6472;52.328;13.070;2023-05-27T09:20:30;1.35;;;1.00;;
12814;SDS011;6472;52.328;13.070;2023-05-27T09:22:59;1.00;;;0.75;;
12814;SDS011;6472;52.328;13.070;2023-05-27T09:25:29;0.95;;;0.80;;
12814;SDS011;6472;52.328;13.070;2023-05-27T09:27:58;2.95;;;0.88;;
12814;SDS011;6472;52.328;13.070;2023-05-27T09:30:26;3.47;;;1.00;;
12814;SDS011;6472;52.328;13.070;2023-05-27T09:33:00;0.95;;;0.82;;
12814;SDS011;6472;52.328;13.070;2023-05-27T09:35:29;1.52;;;1.10;;
12814;SDS011;6472;52.328;13.070;2023-05-27T09:38:04;2.45;;;1.05;;
12814;SDS011;6472;52.328;13.070;2023-05-27T09:40:36;1.00;;;0.77;;
12814;SDS011;6472;52.328;13.070;2023-05-27T09:43:04;1.10;;;0.60;;
12814;SDS011;6472;52.328;13.070;2023-05-27T09:45:33;3.67;;;1.08;;
12814;SDS011;6472;52.328;13.070;2023-05-27T09:48:01;0.65;;;0.60;;
12814;SDS011;6472;52.328;13.070;2023-05-27T09:50:30;0.80;;;0.80;;
12814;SDS011;6472;52.328;13.070;2023-05-27T09:52:59;0.98;;;0.77;;
12814;SDS011;6472;52.328;13.070;2023-05-27T09:55:38;1.50;;;0.93;;
12814;SDS011;6472;52.328;13.070;2023-05-27T09:58:07;1.20;;;0.95;;
12814;SDS011;6472;52.328;13.070;2023-05-27T10:00:37;1.75;;;0.73;;
12814;SDS011;6472;52.328;13.070;2023-05-27T10:03:07;0.85;;;0.80;;
12814;SDS011;6472;52.328;13.070;2023-05-27T10:05:37;1.13;;;0.80;;
12814;SDS011;6472;52.328;13.070;2023-05-27T10:08:06;0.80;;;0.63;;
12814;SDS011;6472;52.328;13.070;2023-05-27T10:10:51;1.52;;;0.90;;
12814;SDS011;6472;52.328;13.070;2023-05-27T10:13:21;0.82;;;0.73;;
12814;SDS011;6472;52.328;13.070;2023-05-27T10:15:51;0.90;;;0.90;;
12814;SDS011;6472;52.328;13.070;2023-05-27T10:18:27;1.40;;;0.90;;
12814;SDS011;6472;52.328;13.070;2023-05-27T10:20:57;0.73;;;0.73;;
12814;SDS011;6472;52.328;13.070;2023-05-27T10:23:26;2.92;;;1.48;;
12814;SDS011;6472;52.328;13.070;2023-05-27T10:26:00;0.63;;;0.63;;
12814;SDS011;6472;52.328;13.070;2023-05-27T10:28:29;0.60;;;0.60;;
12814;SDS011;6472;52.328;13.070;2023-05-27T10:31:05;2.10;;;1.00;;
12814;SDS011;6472;52.328;13.070;2023-05-27T10:33:35;0.85;;;0.60;;
12814;SDS011;6472;52.328;13.070;2023-05-27T10:36:04;1.20;;;0.85;;
12814;SDS011;6472;52.328;13.070;2023-05-27T10:38:35;0.85;;;0.60;;
12814;SDS011;6472;52.328;13.070;2023-05-27T10:41:05;6.68;;;2.20;;
12814;SDS011;6472;52.328;13.070;2023-05-27T10:43:34;0.60;;;0.60;;
12814;SDS011;6472;52.328;13.070;2023-05-27T10:46:04;1.33;;;1.10;;
12814;SDS011;6472;52.328;13.070;2023-05-27T10:48:35;7.95;;;2.13;;
12814;SDS011;6472;52.328;13.070;2023-05-27T10:51:06;1.25;;;1.05;;
12814;SDS011;6472;52.328;13.070;2023-05-27T10:53:34;0.80;;;0.80;;
12814;SDS011;6472;52.328;13.070;2023-05-27T10:56:05;0.85;;;0.85;;
12814;SDS011;6472;52.328;13.070;2023-05-27T10:58:35;1.30;;;0.95;;
12814;SDS011;6472;52.328;13.070;2023-05-27T11:01:07;0.70;;;0.70;;
12814;SDS011;6472;52.328;13.070;2023-05-27T11:03:41;5.75;;;1.63;;
12814;SDS011;6472;52.328;13.070;2023-05-27T11:06:12;1.25;;;0.63;;
12814;SDS011;6472;52.328;13.070;2023-05-27T11:08:41;0.77;;;0.60;;
12814;SDS011;6472;52.328;13.070;2023-05-27T11:11:11;0.60;;;0.60;;
12814;SDS011;6472;52.328;13.070;2023-05-27T11:13:40;1.65;;;1.08;;
12814;SDS011;6472;52.328;13.070;2023-05-27T11:16:13;0.80;;;0.77;;
12814;SDS011;6472;52.328;13.070;2023-05-27T11:18:42;1.95;;;0.88;;
12814;SDS011;6472;52.328;13.070;2023-05-27T11:21:12;1.15;;;1.05;;
12814;SDS011;6472;52.328;13.070;2023-05-27T11:23:43;1.25;;;0.82;;
12814;SDS011;6472;52.328;13.070;2023-05-27T11:26:14;0.60;;;0.60;;
12814;SDS011;6472;52.328;13.070;2023-05-27T11:28:46;0.60;;;0.60;;
12814;SDS011;6472;52.328;13.070;2023-05-27T11:31:15;0.88;;;0.82;;
12814;SDS011;6472;52.328;13.070;2023-05-27T11:33:44;0.90;;;0.77;;
12814;SDS011;6472;52.328;13.070;2023-05-27T11:36:14;1.60;;;0.93;;
12814;SDS011;6472;52.328;13.070;2023-05-27T11:38:48;0.80;;;0.80;;
12814;SDS011;6472;52.328;13.070;2023-05-27T11:41:21;3.15;;;1.48;;
12814;SDS011;6472;52.328;13.070;2023-05-27T11:43:52;1.13;;;0.80;;
12814;SDS011;6472;52.328;13.070;2023-05-27T11:46:23;2.17;;;0.85;;
12814;SDS011;6472;52.328;13.070;2023-05-27T11:48:52;1.75;;;1.05;;
12814;SDS011;6472;52.328;13.070;2023-05-27T11:51:25;1.02;;;0.70;;
12814;SDS011;6472;52.328;13.070;2023-05-27T11:53:55;1.67;;;0.90;;
12814;SDS011;6472;52.328;13.070;2023-05-27T11:56:26;0.90;;;0.73;;
12814;SDS011;6472;52.328;13.070;2023-05-27T11:58:55;1.50;;;0.93;;
12814;SDS011;6472;52.328;13.070;2023-05-27T12:01:23;0.73;;;0.73;;
12814;SDS011;6472;52.328;13.070;2023-05-27T12:03:51;0.52;;;0.52;;
12814;SDS011;6472;52.328;13.070;2023-05-27T12:06:19;1.17;;;1.00;;
12814;SDS011;6472;52.328;13.070;2023-05-27T12:08:47;1.38;;;0.65;;
12814;SDS011;6472;52.328;13.070;2023-05-27T12:11:15;1.08;;;0.77;;
12814;SDS011;6472;52.328;13.070;2023-05-27T12:13:45;0.77;;;0.77;;
12814;SDS011;6472;52.328;13.070;2023-05-27T12:16:13;1.58;;;0.85;;
12814;SDS011;6472;52.328;13.070;2023-05-27T12:18:41;0.98;;;0.93;;
12814;SDS011;6472;52.328;13.070;2023-05-27T12:21:09;2.45;;;0.82;;
12814;SDS011;6472;52.328;13.070;2023-05-27T12:23:37;1.35;;;0.80;;
12814;SDS011;6472;52.328;13.070;2023-05-27T12:26:05;0.52;;;0.52;;
12814;SDS011;6472;52.328;13.070;2023-05-27T12:28:33;0.77;;;0.70;;
12814;SDS011;6472;52.328;13.070;2023-05-27T12:31:02;0.85;;;0.85;;
12814;SDS011;6472;52.328;13.070;2023-05-27T12:33:31;1.38;;;0.82;;
12814;SDS011;6472;52.328;13.070;2023-05-27T12:35:59;1.98;;;0.85;;
12814;SDS011;6472;52.328;13.070;2023-05-27T12:38:28;0.50;;;0.50;;
12814;SDS011;6472;52.328;13.070;2023-05-27T12:40:55;1.15;;;0.82;;
12814;SDS011;6472;52.328;13.070;2023-05-27T12:43:24;1.17;;;0.77;;
12814;SDS011;6472;52.328;13.070;2023-05-27T12:45:52;3.00;;;1.10;;
12814;SDS011;6472;52.328;13.070;2023-05-27T12:48:21;1.55;;;0.93;;
12814;SDS011;6472;52.328;13.070;2023-05-27T12:50:49;2.47;;;1.08;;
12814;SDS011;6472;52.328;13.070;2023-05-27T12:53:17;1.40;;;0.68;;
12814;SDS011;6472;52.328;13.070;2023-05-27T12:55:46;2.25;;;1.23;;
12814;SDS011;6472;52.328;13.070;2023-05-27T12:58:14;0.60;;;0.60;;
12814;SDS011;6472;52.328;13.070;2023-05-27T13:00:42;1.08;;;0.88;;
12814;SDS011;6472;52.328;13.070;2023-05-27T13:03:10;1.17;;;0.70;;
12814;SDS011;6472;52.328;13.070;2023-05-27T13:05:40;1.48;;;1.02;;
12814;SDS011;6472;52.328;13.070;2023-05-27T13:08:08;1.60;;;1.02;;
12814;SDS011;6472;52.328;13.070;2023-05-27T13:10:37;0.90;;;0.85;;
12814;SDS011;6472;52.328;13.070;2023-05-27T13:13:05;1.05;;;0.95;;
12814;SDS011;6472;52.328;13.070;2023-05-27T13:15:33;0.88;;;0.88;;
12814;SDS011;6472;52.328;13.070;2023-05-27T13:18:01;0.80;;;0.80;;
12814;SDS011;6472;52.328;13.070;2023-05-27T13:20:33;0.98;;;0.90;;
12814;SDS011;6472;52.328;13.070;2023-05-27T13:23:02;1.70;;;0.80;;
12814;SDS011;6472;52.328;13.070;2023-05-27T13:25:30;0.88;;;0.80;;
12814;SDS011;6472;52.328;13.070;2023-05-27T13:27:59;0.85;;;0.70;;
12814;SDS011;6472;52.328;13.070;2023-05-27T13:30:27;0.70;;;0.70;;
12814;SDS011;6472;52.328;13.070;2023-05-27T13:32:55;2.17;;;0.88;;
12814;SDS011;6472;52.328;13.070;2023-05-27T13:35:23;0.70;;;0.68;;
12814;SDS011;6472;52.328;13.070;2023-05-27T13:37:51;2.08;;;1.05;;
12814;SDS011;6472;52.328;13.070;2023-05-27T13:40:22;2.17;;;0.68;;
12814;SDS011;6472;52.328;13.070;2023-05-27T13:42:50;3.45;;;0.70;;
12814;SDS011;6472;52.328;13.070;2023-05-27T13:45:21;1.17;;;0.93;;
12814;SDS011;6472;52.328;13.070;2023-05-27T13:47:49;2.70;;;1.25;;
12814;SDS011;6472;52.328;13.070;2023-05-27T13:50:17;1.20;;;0.70;;
12814;SDS011;6472;52.328;13.070;2023-05-27T13:52:45;1.00;;;0.73;;
12814;SDS011;6472;52.328;13.070;2023-05-27T13:55:13;1.00;;;0.85;;
12814;SDS011;6472;52.328;13.070;2023-05-27T13:57:43;1.30;;;1.17;;
12814;SDS011;6472;52.328;13.070;2023-05-27T14:00:11;3.20;;;1.00;;
12814;SDS011;6472;52.328;13.070;2023-05-27T14:02:41;1.95;;;0.70;;
12814;SDS011;6472;52.328;13.070;2023-05-27T14:05:09;2.28;;;1.02;;
12814;SDS011;6472;52.328;13.070;2023-05-27T14:07:39;1.10;;;1.00;;
12814;SDS011;6472;52.328;13.070;2023-05-27T14:10:08;1.17;;;1.00;;
12814;SDS011;6472;52.328;13.070;2023-05-27T14:12:37;1.35;;;1.25;;
12814;SDS011;6472;52.328;13.070;2023-05-27T14:15:07;1.27;;;0.90;;
12814;SDS011;6472;52.328;13.070;2023-05-27T14:17:36;1.55;;;1.10;;
12814;SDS011;6472;52.328;13.070;2023-05-27T14:20:04;0.88;;;0.88;;
12814;SDS011;6472;52.328;13.070;2023-05-27T14:22:37;1.70;;;0.95;;
12814;SDS011;6472;52.328;13.070;2023-05-27T14:25:05;1.08;;;0.80;;
12814;SDS011;6472;52.328;13.070;2023-05-27T14:27:34;1.20;;;1.10;;
12814;SDS011;6472;52.328;13.070;2023-05-27T14:30:02;1.40;;;1.27;;
12814;SDS011;6472;52.328;13.070;2023-05-27T14:32:32;1.88;;;1.20;;
12814;SDS011;6472;52.328;13.070;2023-05-27T14:35:01;7.65;;;1.40;;
12814;SDS011;6472;52.328;13.070;2023-05-27T14:37:29;1.77;;;1.02;;
12814;SDS011;6472;52.328;13.070;2023-05-27T14:39:57;1.10;;;1.02;;
12814;SDS011;6472;52.328;13.070;2023-05-27T14:42:25;1.88;;;0.93;;
12814;SDS011;6472;52.328;13.070;2023-05-27T14:44:56;0.90;;;0.82;;
12814;SDS011;6472;52.328;13.070;2023-05-27T14:47:41;1.55;;;1.02;;
12814;SDS011;6472;52.328;13.070;2023-05-27T14:50:11;1.30;;;1.10;;
12814;SDS011;6472;52.328;13.070;2023-05-27T14:52:39;1.25;;;1.00;;
12814;SDS011;6472;52.328;13.070;2023-05-27T14:55:07;1.70;;;1.10;;
12814;SDS011;6472;52.328;13.070;2023-05-27T14:57:36;2.60;;;1.15;;
12814;SDS011;6472;52.328;13.070;2023-05-27T15:00:04;1.90;;;1.42;;